createdAt,value
2023-02-03T00:00:18.270Z,23.90
2023-02-03T00:06:27.692Z,24.20
2023-02-03T00:12:42.723Z,24.10
2023-02-03T00:18:55.617Z,23.90
2023-02-03T00:25:07.920Z,23.70
2023-02-03T00:31:27.805Z,23.90
2023-02-03T00:37:39.407Z,24.20
2023-02-03T00:43:51.216Z,24.10
2023-02-03T00:50:03.648Z,23.80
2023-02-03T00:56:15.115Z,23.60
2023-02-03T01:02:24.993Z,23.80
2023-02-03T01:08:35.985Z,24.10
2023-02-03T01:14:47.081Z,24.10
2023-02-03T01:21:00.841Z,23.90
2023-02-03T01:27:11.275Z,23.70
2023-02-03T01:33:23.363Z,23.70
2023-02-03T01:39:35.265Z,23.90
2023-02-03T01:45:46.384Z,23.80
2023-02-03T01:51:55.378Z,23.60
2023-02-03T01:58:06.762Z,23.50
2023-02-03T02:10:37.432Z,23.30
2023-02-03T02:16:50.366Z,23.20
2023-02-03T02:23:18.805Z,23.20
2023-02-03T02:29:53.027Z,23.10
2023-02-03T02:36:07.319Z,23.00
2023-02-03T02:42:21.534Z,22.90
2023-02-03T02:48:38.156Z,22.90
2023-02-03T02:54:48.343Z,22.80
2023-02-03T03:01:00.308Z,22.80
2023-02-03T03:07:12.539Z,22.70
2023-02-03T03:13:27.077Z,22.70
2023-02-03T03:19:37.018Z,22.70
2023-02-03T03:25:46.539Z,22.60
2023-02-03T03:31:55.533Z,22.50
2023-02-03T03:38:08.338Z,22.60
2023-02-03T03:44:20.505Z,22.50
2023-02-03T03:50:32.506Z,22.50
2023-02-03T03:56:51.131Z,22.50
2023-02-03T04:03:07.057Z,22.40
2023-02-03T04:09:14.951Z,22.40
2023-02-03T04:15:25.434Z,22.30
2023-02-03T04:21:34.211Z,22.30
2023-02-03T04:27:46.830Z,22.20
2023-02-03T04:33:58.060Z,22.20
2023-02-03T04:40:08.573Z,22.10
2023-02-03T04:46:20.644Z,22.00
2023-02-03T04:52:31.305Z,22.00
2023-02-03T04:58:39.897Z,22.10
2023-02-03T05:04:48.351Z,22.30
2023-02-03T05:10:58.771Z,22.20
2023-02-03T05:17:11.427Z,22.10
2023-02-03T05:23:22.284Z,22.00
2023-02-03T05:29:33.915Z,21.90
2023-02-03T05:35:47.034Z,22.20
2023-02-03T05:41:58.364Z,22.40
2023-02-03T05:48:10.685Z,22.20
2023-02-03T05:54:18.611Z,22.10
2023-02-03T06:00:30.204Z,21.90
2023-02-03T06:06:38.830Z,22.10
2023-02-03T06:12:50.538Z,22.30
2023-02-03T06:19:03.564Z,22.10
2023-02-03T06:25:17.626Z,22.00
2023-02-03T06:31:29.341Z,22.00
2023-02-03T06:37:40.206Z,22.20
2023-02-03T06:43:49.908Z,22.20
2023-02-03T06:49:59.033Z,22.10
2023-02-03T06:56:07.820Z,21.90
2023-02-03T07:02:24.510Z,22.00
2023-02-03T07:08:34.128Z,22.20
2023-02-03T07:14:45.603Z,22.10
2023-02-03T07:20:53.233Z,21.90
2023-02-03T07:27:04.718Z,21.90
2023-02-03T07:33:17.699Z,22.10
2023-02-03T07:39:25.282Z,22.10
2023-02-03T07:45:34.836Z,22.00
2023-02-03T07:51:44.365Z,21.90
2023-02-03T07:57:53.468Z,22.10
2023-02-03T08:04:07.477Z,22.10
2023-02-03T08:10:16.360Z,21.90
2023-02-03T08:16:25.716Z,21.90
2023-02-03T08:22:36.877Z,22.10
2023-02-03T08:28:47.892Z,22.10
2023-02-03T08:34:59.975Z,21.90
2023-02-03T08:41:16.150Z,21.90
2023-02-03T08:47:25.326Z,22.00
2023-02-03T08:53:34.583Z,22.20
2023-02-03T08:59:43.855Z,22.10
2023-02-03T09:05:56.589Z,21.90
2023-02-03T09:12:06.036Z,22.00
2023-02-03T09:18:16.327Z,22.20
2023-02-03T09:24:26.007Z,22.20
2023-02-03T09:30:36.476Z,22.00
2023-02-03T09:36:44.272Z,21.90
2023-02-03T09:43:07.700Z,22.10
2023-02-03T09:49:21.151Z,22.30
2023-02-03T09:55:34.699Z,22.10
2023-02-03T10:01:45.572Z,21.90
2023-02-03T10:08:04.276Z,21.90
2023-02-03T10:14:23.009Z,22.20
2023-02-03T10:20:35.101Z,22.20
2023-02-03T10:26:42.868Z,21.90
2023-02-03T10:32:55.638Z,21.80
2023-02-03T10:39:10.336Z,22.00
2023-02-03T10:45:21.674Z,22.20
2023-02-03T10:51:33.695Z,22.10
2023-02-03T10:57:46.360Z,21.80
2023-02-03T11:04:06.417Z,21.90
2023-02-03T11:10:36.362Z,22.10
2023-02-03T11:16:44.567Z,22.30
2023-02-03T11:22:52.109Z,22.00
2023-02-03T11:29:02.695Z,21.80
2023-02-03T11:35:18.629Z,22.00
2023-02-03T11:41:29.205Z,22.20
2023-02-03T11:47:36.922Z,22.00
2023-02-03T11:53:57.285Z,21.90
2023-02-03T12:00:17.073Z,22.00
2023-02-03T12:06:37.021Z,22.20
2023-02-03T12:12:52.882Z,22.10
2023-02-03T12:19:12.260Z,21.90
2023-02-03T12:25:36.129Z,22.00
2023-02-03T12:31:47.093Z,22.20
2023-02-03T12:37:58.979Z,22.40
2023-02-03T12:44:11.619Z,22.60
2023-02-03T12:50:25.112Z,22.70
2023-02-03T12:56:41.078Z,22.90
2023-02-03T13:03:03.885Z,23.10
2023-02-03T13:09:17.595Z,23.20
2023-02-03T13:15:29.372Z,23.50
2023-02-03T13:21:38.134Z,23.60
2023-02-03T13:27:54.548Z,23.60
2023-02-03T13:34:38.896Z,23.50
2023-02-03T13:40:55.270Z,23.40
2023-02-03T13:47:04.790Z,23.50
2023-02-03T13:53:20.298Z,23.70
2023-02-03T13:59:45.755Z,23.90
2023-02-03T14:05:56.834Z,23.90
2023-02-03T14:12:43.654Z,24.10
2023-02-03T14:18:55.873Z,24.40
2023-02-03T14:25:10.580Z,24.50
2023-02-03T14:31:23.805Z,24.10
2023-02-03T14:37:32.783Z,24.00
2023-02-03T14:43:42.955Z,24.30
2023-02-03T14:50:05.538Z,24.30
2023-02-03T14:56:21.710Z,24.10
2023-02-03T15:02:34.035Z,23.90
2023-02-03T15:08:50.691Z,24.20
2023-02-03T15:14:59.071Z,24.40
2023-02-03T15:21:18.276Z,24.50
2023-02-03T15:27:30.499Z,24.10
2023-02-03T15:33:40.083Z,24.20
2023-02-03T15:39:54.961Z,24.60
2023-02-03T15:46:11.093Z,24.80
2023-02-03T15:52:21.423Z,24.70
2023-02-03T15:58:31.809Z,24.60
2023-02-03T16:04:45.973Z,24.70
2023-02-03T16:10:55.469Z,25.00
2023-02-03T16:17:06.510Z,25.10
2023-02-03T16:23:28.281Z,25.00
2023-02-03T16:29:59.776Z,24.70
2023-02-03T16:36:32.403Z,24.90
2023-02-03T16:43:03.336Z,25.20
2023-02-03T16:49:31.325Z,25.40
2023-02-03T16:55:42.340Z,25.30
2023-02-03T17:01:56.175Z,25.10
2023-02-03T17:08:09.119Z,25.00
2023-02-03T17:14:19.034Z,25.30
2023-02-03T17:20:27.700Z,25.50
2023-02-03T17:26:38.226Z,25.70
2023-02-03T17:32:48.437Z,25.50
2023-02-03T17:58:13.282Z,25.70
2023-02-03T18:04:25.178Z,25.70
2023-02-03T18:10:35.827Z,25.50
2023-02-03T18:16:45.060Z,25.30
2023-02-03T18:22:56.767Z,25.10
2023-02-03T18:29:11.751Z,25.40
2023-02-03T18:35:20.007Z,25.60
2023-02-03T18:41:31.618Z,25.70
2023-02-03T18:47:39.216Z,25.50
2023-02-03T18:53:49.856Z,25.20
2023-02-03T19:00:01.899Z,25.10
2023-02-03T19:06:16.432Z,25.40
2023-02-03T19:12:27.105Z,25.30
2023-02-03T19:18:37.908Z,25.00
2023-02-03T19:24:47.348Z,24.80
2023-02-03T19:31:02.902Z,24.90
2023-02-03T19:37:09.210Z,25.10
2023-02-03T19:43:25.018Z,25.30
2023-02-03T19:49:36.066Z,25.20
2023-02-03T19:55:47.074Z,24.90
2023-02-03T20:02:04.060Z,24.90
2023-02-03T20:08:14.190Z,25.10
2023-02-03T20:14:26.968Z,25.30
2023-02-03T20:20:36.744Z,25.20
2023-02-03T20:26:45.644Z,24.80
2023-02-03T20:32:58.039Z,25.00
2023-02-03T20:39:08.457Z,25.10
2023-02-03T20:45:19.942Z,25.20
2023-02-03T20:51:33.528Z,24.90
2023-02-03T20:57:42.838Z,24.50
2023-02-03T21:04:10.210Z,24.60
2023-02-03T21:10:21.960Z,24.80
2023-02-03T21:16:38.127Z,25.00
2023-02-03T21:22:49.720Z,24.70
2023-02-03T21:28:57.747Z,24.40
2023-02-03T21:35:18.662Z,24.40
2023-02-03T21:41:29.217Z,24.70
2023-02-03T21:47:40.716Z,24.90
2023-02-03T21:53:54.888Z,24.60
2023-02-03T22:00:05.622Z,24.30
2023-02-03T22:06:34.506Z,24.20
2023-02-03T22:12:45.713Z,24.50
2023-02-03T22:18:58.030Z,24.70
2023-02-03T22:25:10.520Z,24.50
2023-02-03T22:31:20.007Z,24.20
2023-02-03T22:37:30.917Z,24.30
2023-02-03T22:43:39.457Z,24.60
2023-02-03T22:49:47.683Z,24.80
2023-02-03T22:55:59.162Z,24.50
2023-02-03T23:02:10.075Z,24.20
2023-02-03T23:08:19.175Z,24.30
2023-02-03T23:14:28.055Z,24.70
2023-02-03T23:20:40.209Z,24.90
2023-02-03T23:26:48.706Z,24.80
2023-02-03T23:33:00.992Z,24.40
2023-02-03T23:39:12.480Z,24.20
2023-02-03T23:45:23.708Z,24.40
2023-02-03T23:51:31.227Z,24.80
2023-02-03T23:57:43.424Z,25.00
